sensor_id;sensor_type;location;lat;lon;timestamp;P1;durP1;ratioP1;P2;durP2;ratioP2
51374;SDS011;37465;52.738;4.752;2023-12-22T00:00:27;13.52;;;1.90;;
51374;SDS011;37465;52.738;4.752;2023-12-22T00:02:56;17.10;;;2.00;;
51374;SDS011;37465;52.738;4.752;2023-12-22T00:05:23;17.90;;;2.65;;
51374;SDS011;37465;52.738;4.752;2023-12-22T00:07:51;11.70;;;2.20;;
51374;SDS011;37465;52.738;4.752;2023-12-22T00:10:18;13.82;;;2.90;;
51374;SDS011;37465;52.738;4.752;2023-12-22T00:12:46;9.38;;;2.08;;
51374;SDS011;37465;52.738;4.752;2023-12-22T00:15:13;11.70;;;1.95;;
51374;SDS011;37465;52.738;4.752;2023-12-22T00:17:41;12.18;;;1.73;;
51374;SDS011;37465;52.738;4.752;2023-12-22T00:20:10;10.45;;;2.08;;
51374;SDS011;37465;52.738;4.752;2023-12-22T00:22:40;14.73;;;3.85;;
51374;SDS011;37465;52.738;4.752;2023-12-22T00:25:07;9.82;;;2.25;;
51374;SDS011;37465;52.738;4.752;2023-12-22T00:27:36;5.38;;;1.20;;
51374;SDS011;37465;52.738;4.752;2023-12-22T00:30:03;5.25;;;0.93;;
51374;SDS011;37465;52.738;4.752;2023-12-22T00:32:31;9.35;;;1.60;;
51374;SDS011;37465;52.738;4.752;2023-12-22T00:34:59;8.63;;;1.45;;
51374;SDS011;37465;52.738;4.752;2023-12-22T00:37:28;13.50;;;1.80;;
51374;SDS011;37465;52.738;4.752;2023-12-22T00:39:55;7.30;;;1.55;;
51374;SDS011;37465;52.738;4.752;2023-12-22T00:42:23;6.07;;;1.52;;
51374;SDS011;37465;52.738;4.752;2023-12-22T00:44:51;7.03;;;1.38;;
51374;SDS011;37465;52.738;4.752;2023-12-22T00:47:19;13.45;;;2.00;;
51374;SDS011;37465;52.738;4.752;2023-12-22T00:49:47;10.73;;;1.73;;
51374;SDS011;37465;52.738;4.752;2023-12-22T00:52:14;13.10;;;2.88;;
51374;SDS011;37465;52.738;4.752;2023-12-22T00:54:43;12.50;;;2.50;;
51374;SDS011;37465;52.738;4.752;2023-12-22T00:57:11;15.70;;;2.72;;
51374;SDS011;37465;52.738;4.752;2023-12-22T00:59:39;11.90;;;2.70;;
51374;SDS011;37465;52.738;4.752;2023-12-22T01:02:11;13.77;;;2.33;;
51374;SDS011;37465;52.738;4.752;2023-12-22T01:04:39;15.85;;;3.67;;
51374;SDS011;37465;52.738;4.752;2023-12-22T01:07:07;22.10;;;4.10;;
51374;SDS011;37465;52.738;4.752;2023-12-22T01:09:35;14.10;;;2.60;;
51374;SDS011;37465;52.738;4.752;2023-12-22T01:12:06;25.95;;;3.38;;
51374;SDS011;37465;52.738;4.752;2023-12-22T01:14:34;19.83;;;3.20;;
51374;SDS011;37465;52.738;4.752;2023-12-22T01:17:01;19.75;;;3.97;;
51374;SDS011;37465;52.738;4.752;2023-12-22T01:19:29;16.73;;;3.60;;
51374;SDS011;37465;52.738;4.752;2023-12-22T01:21:56;25.23;;;3.95;;
51374;SDS011;37465;52.738;4.752;2023-12-22T01:24:24;20.95;;;3.97;;
51374;SDS011;37465;52.738;4.752;2023-12-22T01:26:51;23.63;;;3.63;;
51374;SDS011;37465;52.738;4.752;2023-12-22T01:29:20;18.23;;;3.85;;
51374;SDS011;37465;52.738;4.752;2023-12-22T01:31:48;23.00;;;3.85;;
51374;SDS011;37465;52.738;4.752;2023-12-22T01:34:15;18.35;;;3.33;;
51374;SDS011;37465;52.738;4.752;2023-12-22T01:36:43;21.30;;;2.72;;
51374;SDS011;37465;52.738;4.752;2023-12-22T01:39:10;18.63;;;3.55;;
51374;SDS011;37465;52.738;4.752;2023-12-22T01:41:38;12.38;;;2.83;;
51374;SDS011;37465;52.738;4.752;2023-12-22T01:44:05;10.00;;;1.85;;
51374;SDS011;37465;52.738;4.752;2023-12-22T01:46:34;8.90;;;0.73;;
51374;SDS011;37465;52.738;4.752;2023-12-22T01:49:03;4.05;;;0.93;;
51374;SDS011;37465;52.738;4.752;2023-12-22T01:51:31;8.77;;;1.02;;
51374;SDS011;37465;52.738;4.752;2023-12-22T01:53:59;15.90;;;1.83;;
51374;SDS011;37465;52.738;4.752;2023-12-22T01:56:27;10.68;;;1.95;;
51374;SDS011;37465;52.738;4.752;2023-12-22T01:58:57;11.75;;;1.48;;
51374;SDS011;37465;52.738;4.752;2023-12-22T02:01:25;17.63;;;3.13;;
51374;SDS011;37465;52.738;4.752;2023-12-22T02:03:54;14.82;;;1.80;;
51374;SDS011;37465;52.738;4.752;2023-12-22T02:06:22;13.30;;;1.55;;
51374;SDS011;37465;52.738;4.752;2023-12-22T02:08:50;16.20;;;2.08;;
51374;SDS011;37465;52.738;4.752;2023-12-22T02:11:18;15.60;;;2.50;;
51374;SDS011;37465;52.738;4.752;2023-12-22T02:13:46;14.48;;;1.92;;
51374;SDS011;37465;52.738;4.752;2023-12-22T02:16:19;11.38;;;1.60;;
51374;SDS011;37465;52.738;4.752;2023-12-22T02:18:49;12.32;;;2.30;;
51374;SDS011;37465;52.738;4.752;2023-12-22T02:21:18;18.08;;;2.95;;
51374;SDS011;37465;52.738;4.752;2023-12-22T02:23:48;23.02;;;3.80;;
51374;SDS011;37465;52.738;4.752;2023-12-22T02:26:17;26.60;;;5.75;;
51374;SDS011;37465;52.738;4.752;2023-12-22T02:28:45;12.23;;;2.25;;
51374;SDS011;37465;52.738;4.752;2023-12-22T02:31:14;18.02;;;2.65;;
51374;SDS011;37465;52.738;4.752;2023-12-22T02:33:43;21.30;;;4.65;;
51374;SDS011;37465;52.738;4.752;2023-12-22T02:36:11;24.02;;;3.35;;
51374;SDS011;37465;52.738;4.752;2023-12-22T02:38:40;25.63;;;3.30;;
51374;SDS011;37465;52.738;4.752;2023-12-22T02:41:09;20.17;;;3.00;;
51374;SDS011;37465;52.738;4.752;2023-12-22T02:43:37;17.52;;;2.45;;
51374;SDS011;37465;52.738;4.752;2023-12-22T02:46:03;19.42;;;2.92;;
51374;SDS011;37465;52.738;4.752;2023-12-22T02:48:31;21.42;;;3.40;;
51374;SDS011;37465;52.738;4.752;2023-12-22T02:50:58;18.50;;;3.25;;
51374;SDS011;37465;52.738;4.752;2023-12-22T02:53:26;13.50;;;2.80;;
51374;SDS011;37465;52.738;4.752;2023-12-22T02:55:53;17.48;;;2.70;;
51374;SDS011;37465;52.738;4.752;2023-12-22T02:58:22;20.83;;;3.17;;
51374;SDS011;37465;52.738;4.752;2023-12-22T03:00:50;18.67;;;3.08;;
51374;SDS011;37465;52.738;4.752;2023-12-22T03:03:18;10.55;;;1.85;;
51374;SDS011;37465;52.738;4.752;2023-12-22T03:05:44;14.93;;;2.88;;
51374;SDS011;37465;52.738;4.752;2023-12-22T03:08:12;17.33;;;2.40;;
51374;SDS011;37465;52.738;4.752;2023-12-22T03:10:39;12.93;;;2.58;;
51374;SDS011;37465;52.738;4.752;2023-12-22T03:13:07;14.07;;;2.45;;
51374;SDS011;37465;52.738;4.752;2023-12-22T03:15:35;17.98;;;3.00;;
51374;SDS011;37465;52.738;4.752;2023-12-22T03:18:03;15.60;;;2.95;;
51374;SDS011;37465;52.738;4.752;2023-12-22T03:20:31;15.45;;;2.70;;
51374;SDS011;37465;52.738;4.752;2023-12-22T03:22:58;42.60;;;4.07;;
51374;SDS011;37465;52.738;4.752;2023-12-22T03:25:26;20.48;;;3.80;;
51374;SDS011;37465;52.738;4.752;2023-12-22T03:27:53;21.42;;;3.20;;
51374;SDS011;37465;52.738;4.752;2023-12-22T03:30:21;9.88;;;2.03;;
51374;SDS011;37465;52.738;4.752;2023-12-22T03:32:50;10.38;;;2.22;;
51374;SDS011;37465;52.738;4.752;2023-12-22T03:35:17;7.22;;;1.52;;
51374;SDS011;37465;52.738;4.752;2023-12-22T03:37:45;7.25;;;1.38;;
51374;SDS011;37465;52.738;4.752;2023-12-22T03:40:13;11.80;;;2.08;;
51374;SDS011;37465;52.738;4.752;2023-12-22T03:42:41;12.88;;;1.98;;
51374;SDS011;37465;52.738;4.752;2023-12-22T03:45:08;16.85;;;2.20;;
51374;SDS011;37465;52.738;4.752;2023-12-22T03:47:36;18.75;;;2.72;;
51374;SDS011;37465;52.738;4.752;2023-12-22T03:50:05;10.80;;;2.03;;
51374;SDS011;37465;52.738;4.752;2023-12-22T03:52:33;11.77;;;2.70;;
51374;SDS011;37465;52.738;4.752;2023-12-22T03:55:01;19.52;;;3.08;;
51374;SDS011;37465;52.738;4.752;2023-12-22T03:57:28;18.58;;;3.00;;
51374;SDS011;37465;52.738;4.752;2023-12-22T03:59:56;18.90;;;3.22;;
51374;SDS011;37465;52.738;4.752;2023-12-22T04:02:23;15.70;;;2.83;;
51374;SDS011;37465;52.738;4.752;2023-12-22T04:04:51;16.50;;;3.70;;
51374;SDS011;37465;52.738;4.752;2023-12-22T04:07:20;27.83;;;5.07;;
51374;SDS011;37465;52.738;4.752;2023-12-22T04:09:47;21.90;;;4.60;;
51374;SDS011;37465;52.738;4.752;2023-12-22T04:12:15;21.60;;;3.80;;
51374;SDS011;37465;52.738;4.752;2023-12-22T04:14:42;25.58;;;5.05;;
51374;SDS011;37465;52.738;4.752;2023-12-22T04:17:10;25.58;;;4.35;;
51374;SDS011;37465;52.738;4.752;2023-12-22T04:19:38;25.20;;;3.78;;
51374;SDS011;37465;52.738;4.752;2023-12-22T04:22:05;20.23;;;3.55;;
51374;SDS011;37465;52.738;4.752;2023-12-22T04:24:34;23.70;;;4.65;;
51374;SDS011;37465;52.738;4.752;2023-12-22T04:27:02;24.70;;;4.83;;
51374;SDS011;37465;52.738;4.752;2023-12-22T04:29:29;33.28;;;4.85;;
51374;SDS011;37465;52.738;4.752;2023-12-22T04:31:57;33.38;;;5.03;;
51374;SDS011;37465;52.738;4.752;2023-12-22T04:34:24;26.10;;;4.25;;
51374;SDS011;37465;52.738;4.752;2023-12-22T04:36:52;25.13;;;5.30;;
51374;SDS011;37465;52.738;4.752;2023-12-22T04:39:19;23.27;;;4.88;;
51374;SDS011;37465;52.738;4.752;2023-12-22T04:41:51;31.45;;;5.10;;
51374;SDS011;37465;52.738;4.752;2023-12-22T04:44:19;31.38;;;5.43;;
51374;SDS011;37465;52.738;4.752;2023-12-22T04:46:46;30.65;;;3.80;;
51374;SDS011;37465;52.738;4.752;2023-12-22T04:49:14;18.75;;;3.72;;
51374;SDS011;37465;52.738;4.752;2023-12-22T04:51:42;21.98;;;4.32;;
51374;SDS011;37465;52.738;4.752;2023-12-22T04:54:09;25.80;;;4.15;;
51374;SDS011;37465;52.738;4.752;2023-12-22T04:56:37;18.65;;;3.35;;
51374;SDS011;37465;52.738;4.752;2023-12-22T04:59:06;20.17;;;2.95;;
51374;SDS011;37465;52.738;4.752;2023-12-22T05:01:32;19.17;;;3.38;;
51374;SDS011;37465;52.738;4.752;2023-12-22T05:04:00;22.27;;;3.33;;
51374;SDS011;37465;52.738;4.752;2023-12-22T05:06:28;17.33;;;2.83;;
51374;SDS011;37465;52.738;4.752;2023-12-22T05:08:56;13.52;;;3.00;;
51374;SDS011;37465;52.738;4.752;2023-12-22T05:11:23;12.85;;;2.20;;
51374;SDS011;37465;52.738;4.752;2023-12-22T05:13:51;8.20;;;1.65;;
51374;SDS011;37465;52.738;4.752;2023-12-22T05:16:20;7.18;;;1.52;;
51374;SDS011;37465;52.738;4.752;2023-12-22T05:18:48;11.48;;;1.70;;
51374;SDS011;37465;52.738;4.752;2023-12-22T05:21:15;12.77;;;2.28;;
51374;SDS011;37465;52.738;4.752;2023-12-22T05:23:43;12.40;;;1.67;;
51374;SDS011;37465;52.738;4.752;2023-12-22T05:26:10;13.23;;;2.15;;
51374;SDS011;37465;52.738;4.752;2023-12-22T05:28:43;15.02;;;2.28;;
51374;SDS011;37465;52.738;4.752;2023-12-22T05:31:10;15.88;;;3.20;;
51374;SDS011;37465;52.738;4.752;2023-12-22T05:33:39;21.00;;;2.67;;
51374;SDS011;37465;52.738;4.752;2023-12-22T05:36:08;30.05;;;3.55;;
51374;SDS011;37465;52.738;4.752;2023-12-22T05:38:36;18.98;;;3.78;;
51374;SDS011;37465;52.738;4.752;2023-12-22T05:41:04;25.97;;;3.17;;
51374;SDS011;37465;52.738;4.752;2023-12-22T05:43:32;21.35;;;3.40;;
51374;SDS011;37465;52.738;4.752;2023-12-22T05:46:00;23.77;;;2.85;;
51374;SDS011;37465;52.738;4.752;2023-12-22T05:48:28;20.17;;;3.40;;
51374;SDS011;37465;52.738;4.752;2023-12-22T05:50:57;19.00;;;3.40;;
51374;SDS011;37465;52.738;4.752;2023-12-22T05:53:24;25.27;;;5.22;;
51374;SDS011;37465;52.738;4.752;2023-12-22T05:55:52;22.63;;;3.22;;
51374;SDS011;37465;52.738;4.752;2023-12-22T05:58:19;30.88;;;5.05;;
51374;SDS011;37465;52.738;4.752;2023-12-22T06:00:47;21.30;;;3.38;;
51374;SDS011;37465;52.738;4.752;2023-12-22T06:03:15;18.20;;;3.05;;
51374;SDS011;37465;52.738;4.752;2023-12-22T06:05:42;17.83;;;2.45;;
51374;SDS011;37465;52.738;4.752;2023-12-22T06:08:11;22.75;;;4.10;;
51374;SDS011;37465;52.738;4.752;2023-12-22T06:10:39;21.75;;;3.15;;
51374;SDS011;37465;52.738;4.752;2023-12-22T06:13:07;15.93;;;3.13;;
51374;SDS011;37465;52.738;4.752;2023-12-22T06:15:34;21.73;;;4.03;;
51374;SDS011;37465;52.738;4.752;2023-12-22T06:18:02;20.20;;;3.45;;
51374;SDS011;37465;52.738;4.752;2023-12-22T06:20:29;16.45;;;3.42;;
51374;SDS011;37465;52.738;4.752;2023-12-22T06:22:57;16.13;;;3.08;;
51374;SDS011;37465;52.738;4.752;2023-12-22T06:25:26;21.63;;;3.88;;
51374;SDS011;37465;52.738;4.752;2023-12-22T06:27:53;22.25;;;3.38;;
51374;SDS011;37465;52.738;4.752;2023-12-22T06:30:21;23.67;;;2.90;;
51374;SDS011;37465;52.738;4.752;2023-12-22T06:32:48;17.83;;;4.20;;
51374;SDS011;37465;52.738;4.752;2023-12-22T06:35:16;18.58;;;3.13;;
51374;SDS011;37465;52.738;4.752;2023-12-22T06:37:49;16.00;;;3.05;;
51374;SDS011;37465;52.738;4.752;2023-12-22T06:40:18;23.20;;;4.10;;
51374;SDS011;37465;52.738;4.752;2023-12-22T06:42:47;20.65;;;4.28;;
51374;SDS011;37465;52.738;4.752;2023-12-22T06:45:15;18.77;;;3.70;;
51374;SDS011;37465;52.738;4.752;2023-12-22T06:47:42;20.25;;;4.00;;
51374;SDS011;37465;52.738;4.752;2023-12-22T06:50:10;16.92;;;3.55;;
51374;SDS011;37465;52.738;4.752;2023-12-22T06:52:38;20.33;;;2.95;;
51374;SDS011;37465;52.738;4.752;2023-12-22T06:55:06;18.10;;;3.63;;
51374;SDS011;37465;52.738;4.752;2023-12-22T06:57:34;19.75;;;3.58;;
51374;SDS011;37465;52.738;4.752;2023-12-22T07:00:05;16.73;;;3.17;;
51374;SDS011;37465;52.738;4.752;2023-12-22T07:02:33;27.20;;;3.83;;
51374;SDS011;37465;52.738;4.752;2023-12-22T07:07:47;24.38;;;4.20;;
51374;SDS011;37465;52.738;4.752;2023-12-22T07:10:15;29.17;;;4.85;;
51374;SDS011;37465;52.738;4.752;2023-12-22T07:15:11;22.77;;;3.85;;
51374;SDS011;37465;52.738;4.752;2023-12-22T07:17:39;25.37;;;5.60;;
51374;SDS011;37465;52.738;4.752;2023-12-22T07:20:07;29.42;;;6.00;;
51374;SDS011;37465;52.738;4.752;2023-12-22T07:22:35;24.88;;;6.32;;
51374;SDS011;37465;52.738;4.752;2023-12-22T07:25:04;27.25;;;6.10;;
51374;SDS011;37465;52.738;4.752;2023-12-22T07:27:33;24.05;;;4.93;;
51374;SDS011;37465;52.738;4.752;2023-12-22T07:30:01;27.20;;;4.65;;
51374;SDS011;37465;52.738;4.752;2023-12-22T07:32:30;24.42;;;4.55;;
51374;SDS011;37465;52.738;4.752;2023-12-22T07:34:57;25.65;;;5.75;;
51374;SDS011;37465;52.738;4.752;2023-12-22T07:37:26;28.02;;;4.93;;
51374;SDS011;37465;52.738;4.752;2023-12-22T07:39:54;28.13;;;4.90;;
51374;SDS011;37465;52.738;4.752;2023-12-22T07:42:24;26.00;;;5.28;;
51374;SDS011;37465;52.738;4.752;2023-12-22T07:44:53;29.00;;;5.10;;
51374;SDS011;37465;52.738;4.752;2023-12-22T07:47:20;26.00;;;4.80;;
51374;SDS011;37465;52.738;4.752;2023-12-22T07:49:49;20.92;;;4.43;;
51374;SDS011;37465;52.738;4.752;2023-12-22T07:52:17;24.88;;;4.45;;
51374;SDS011;37465;52.738;4.752;2023-12-22T07:54:44;27.38;;;3.70;;
51374;SDS011;37465;52.738;4.752;2023-12-22T07:59:41;30.48;;;5.43;;
51374;SDS011;37465;52.738;4.752;2023-12-22T08:02:09;33.33;;;5.47;;
51374;SDS011;37465;52.738;4.752;2023-12-22T08:04:38;40.50;;;6.07;;
51374;SDS011;37465;52.738;4.752;2023-12-22T08:07:07;29.92;;;5.65;;
51374;SDS011;37465;52.738;4.752;2023-12-22T08:09:34;33.15;;;5.60;;
51374;SDS011;37465;52.738;4.752;2023-12-22T08:12:02;28.85;;;4.13;;
51374;SDS011;37465;52.738;4.752;2023-12-22T08:14:31;30.50;;;4.50;;
51374;SDS011;37465;52.738;4.752;2023-12-22T08:16:58;32.10;;;4.80;;
51374;SDS011;37465;52.738;4.752;2023-12-22T08:19:26;22.98;;;4.40;;
51374;SDS011;37465;52.738;4.752;2023-12-22T08:21:57;18.45;;;3.67;;
51374;SDS011;37465;52.738;4.752;2023-12-22T08:24:29;23.45;;;4.05;;
51374;SDS011;37465;52.738;4.752;2023-12-22T08:26:58;24.70;;;4.03;;
51374;SDS011;37465;52.738;4.752;2023-12-22T08:29:25;25.67;;;4.75;;
51374;SDS011;37465;52.738;4.752;2023-12-22T08:31:53;21.08;;;5.03;;
51374;SDS011;37465;52.738;4.752;2023-12-22T08:34:21;20.77;;;4.38;;
51374;SDS011;37465;52.738;4.752;2023-12-22T08:36:48;18.63;;;3.90;;
51374;SDS011;37465;52.738;4.752;2023-12-22T08:39:15;28.10;;;4.28;;
51374;SDS011;37465;52.738;4.752;2023-12-22T08:41:45;19.58;;;4.00;;
51374;SDS011;37465;52.738;4.752;2023-12-22T08:44:13;19.40;;;3.85;;
51374;SDS011;37465;52.738;4.752;2023-12-22T08:46:41;15.82;;;3.03;;
51374;SDS011;37465;52.738;4.752;2023-12-22T08:49:09;20.80;;;3.15;;
51374;SDS011;37465;52.738;4.752;2023-12-22T08:54:04;26.27;;;4.43;;
51374;SDS011;37465;52.738;4.752;2023-12-22T08:56:31;21.30;;;3.22;;
51374;SDS011;37465;52.738;4.752;2023-12-22T08:59:02;15.65;;;2.55;;
51374;SDS011;37465;52.738;4.752;2023-12-22T09:01:30;23.42;;;4.25;;
51374;SDS011;37465;52.738;4.752;2023-12-22T09:03:57;15.55;;;2.97;;
51374;SDS011;37465;52.738;4.752;2023-12-22T09:13:47;18.30;;;2.58;;
51374;SDS011;37465;52.738;4.752;2023-12-22T09:16:21;26.33;;;3.47;;
51374;SDS011;37465;52.738;4.752;2023-12-22T09:18:49;19.15;;;3.08;;
51374;SDS011;37465;52.738;4.752;2023-12-22T09:21:17;16.95;;;2.92;;
51374;SDS011;37465;52.738;4.752;2023-12-22T09:23:45;16.67;;;3.50;;
51374;SDS011;37465;52.738;4.752;2023-12-22T09:26:13;21.73;;;3.08;;
51374;SDS011;37465;52.738;4.752;2023-12-22T09:33:37;20.60;;;3.00;;
51374;SDS011;37465;52.738;4.752;2023-12-22T09:38:33;20.10;;;4.20;;
51374;SDS011;37465;52.738;4.752;2023-12-22T09:41:01;26.95;;;3.70;;
51374;SDS011;37465;52.738;4.752;2023-12-22T09:43:28;24.65;;;4.03;;
51374;SDS011;37465;52.738;4.752;2023-12-22T09:45:56;15.38;;;3.38;;
51374;SDS011;37465;52.738;4.752;2023-12-22T09:48:24;17.55;;;3.65;;
51374;SDS011;37465;52.738;4.752;2023-12-22T09:50:55;20.30;;;3.90;;
51374;SDS011;37465;52.738;4.752;2023-12-22T09:53:23;16.00;;;2.85;;
51374;SDS011;37465;52.738;4.752;2023-12-22T09:55:51;13.52;;;2.33;;
51374;SDS011;37465;52.738;4.752;2023-12-22T09:58:20;16.83;;;2.65;;
51374;SDS011;37465;52.738;4.752;2023-12-22T10:00:49;19.48;;;3.47;;
51374;SDS011;37465;52.738;4.752;2023-12-22T10:03:17;17.15;;;3.35;;
51374;SDS011;37465;52.738;4.752;2023-12-22T10:05:46;16.50;;;2.92;;
51374;SDS011;37465;52.738;4.752;2023-12-22T10:08:15;17.42;;;3.55;;
51374;SDS011;37465;52.738;4.752;2023-12-22T10:10:43;17.65;;;2.85;;
51374;SDS011;37465;52.738;4.752;2023-12-22T10:13:11;22.70;;;3.42;;
51374;SDS011;37465;52.738;4.752;2023-12-22T10:15:39;15.68;;;2.80;;
51374;SDS011;37465;52.738;4.752;2023-12-22T10:18:08;23.80;;;4.10;;
51374;SDS011;37465;52.738;4.752;2023-12-22T10:20:36;13.95;;;2.50;;
51374;SDS011;37465;52.738;4.752;2023-12-22T10:23:03;15.98;;;2.58;;
51374;SDS011;37465;52.738;4.752;2023-12-22T10:25:33;15.75;;;2.72;;
51374;SDS011;37465;52.738;4.752;2023-12-22T10:28:01;12.50;;;3.17;;
51374;SDS011;37465;52.738;4.752;2023-12-22T10:30:29;16.45;;;2.75;;
51374;SDS011;37465;52.738;4.752;2023-12-22T10:32:58;17.92;;;2.90;;
51374;SDS011;37465;52.738;4.752;2023-12-22T10:35:26;14.27;;;3.08;;
51374;SDS011;37465;52.738;4.752;2023-12-22T10:37:54;15.60;;;2.90;;
51374;SDS011;37465;52.738;4.752;2023-12-22T10:40:25;14.65;;;3.50;;
51374;SDS011;37465;52.738;4.752;2023-12-22T10:42:54;12.07;;;2.42;;
51374;SDS011;37465;52.738;4.752;2023-12-22T10:45:21;15.93;;;3.13;;
51374;SDS011;37465;52.738;4.752;2023-12-22T10:47:49;15.57;;;3.10;;
51374;SDS011;37465;52.738;4.752;2023-12-22T10:50:19;16.45;;;3.10;;
51374;SDS011;37465;52.738;4.752;2023-12-22T10:52:48;14.57;;;2.85;;
51374;SDS011;37465;52.738;4.752;2023-12-22T10:55:16;19.40;;;2.88;;
51374;SDS011;37465;52.738;4.752;2023-12-22T10:57:44;19.77;;;4.40;;
51374;SDS011;37465;52.738;4.752;2023-12-22T11:00:15;16.77;;;3.30;;
51374;SDS011;37465;52.738;4.752;2023-12-22T11:02:43;24.30;;;3.47;;
51374;SDS011;37465;52.738;4.752;2023-12-22T11:05:14;14.43;;;2.92;;
51374;SDS011;37465;52.738;4.752;2023-12-22T11:07:46;19.48;;;3.17;;
51374;SDS011;37465;52.738;4.752;2023-12-22T11:10:17;17.92;;;3.30;;
51374;SDS011;37465;52.738;4.752;2023-12-22T11:12:46;14.80;;;2.70;;
51374;SDS011;37465;52.738;4.752;2023-12-22T11:15:15;14.85;;;2.65;;
51374;SDS011;37465;52.738;4.752;2023-12-22T11:17:43;13.48;;;2.90;;
51374;SDS011;37465;52.738;4.752;2023-12-22T11:20:12;15.60;;;2.83;;
51374;SDS011;37465;52.738;4.752;2023-12-22T11:22:40;19.38;;;3.22;;
51374;SDS011;37465;52.738;4.752;2023-12-22T11:25:09;16.55;;;3.03;;
51374;SDS011;37465;52.738;4.752;2023-12-22T11:27:41;12.80;;;2.38;;
51374;SDS011;37465;52.738;4.752;2023-12-22T11:30:10;16.03;;;2.43;;
51374;SDS011;37465;52.738;4.752;2023-12-22T11:32:40;21.30;;;2.80;;
51374;SDS011;37465;52.738;4.752;2023-12-22T11:35:08;17.20;;;3.15;;
51374;SDS011;37465;52.738;4.752;2023-12-22T11:37:37;13.93;;;2.20;;
51374;SDS011;37465;52.738;4.752;2023-12-22T11:40:05;17.33;;;3.65;;
51374;SDS011;37465;52.738;4.752;2023-12-22T11:42:35;12.80;;;2.85;;
51374;SDS011;37465;52.738;4.752;2023-12-22T11:45:05;16.42;;;3.25;;
51374;SDS011;37465;52.738;4.752;2023-12-22T11:47:32;18.80;;;2.97;;
51374;SDS011;37465;52.738;4.752;2023-12-22T11:50:02;22.73;;;4.18;;
51374;SDS011;37465;52.738;4.752;2023-12-22T11:52:30;15.90;;;3.22;;
51374;SDS011;37465;52.738;4.752;2023-12-22T11:54:58;16.10;;;2.92;;
51374;SDS011;37465;52.738;4.752;2023-12-22T11:57:29;14.73;;;2.60;;
51374;SDS011;37465;52.738;4.752;2023-12-22T11:59:56;17.38;;;2.88;;
51374;SDS011;37465;52.738;4.752;2023-12-22T12:02:24;21.17;;;3.53;;
51374;SDS011;37465;52.738;4.752;2023-12-22T12:04:52;11.77;;;2.30;;
51374;SDS011;37465;52.738;4.752;2023-12-22T12:07:40;17.67;;;3.13;;
51374;SDS011;37465;52.738;4.752;2023-12-22T12:10:10;17.67;;;2.60;;
51374;SDS011;37465;52.738;4.752;2023-12-22T12:12:38;14.20;;;2.53;;
51374;SDS011;37465;52.738;4.752;2023-12-22T12:15:07;16.55;;;2.58;;
51374;SDS011;37465;52.738;4.752;2023-12-22T12:17:37;15.68;;;3.55;;
51374;SDS011;37465;52.738;4.752;2023-12-22T12:20:05;18.15;;;2.92;;
51374;SDS011;37465;52.738;4.752;2023-12-22T12:22:33;15.95;;;2.88;;
51374;SDS011;37465;52.738;4.752;2023-12-22T12:25:02;14.35;;;2.83;;
51374;SDS011;37465;52.738;4.752;2023-12-22T12:30:03;21.15;;;3.33;;
51374;SDS011;37465;52.738;4.752;2023-12-22T12:32:33;18.17;;;3.53;;
51374;SDS011;37465;52.738;4.752;2023-12-22T12:35:01;18.05;;;3.40;;
51374;SDS011;37465;52.738;4.752;2023-12-22T12:37:30;20.92;;;3.17;;
51374;SDS011;37465;52.738;4.752;2023-12-22T12:39:59;16.33;;;2.72;;
51374;SDS011;37465;52.738;4.752;2023-12-22T12:42:29;14.27;;;2.85;;
51374;SDS011;37465;52.738;4.752;2023-12-22T12:44:57;20.40;;;3.75;;
51374;SDS011;37465;52.738;4.752;2023-12-22T12:47:24;16.15;;;3.33;;
51374;SDS011;37465;52.738;4.752;2023-12-22T12:49:58;20.25;;;4.18;;
51374;SDS011;37465;52.738;4.752;2023-12-22T12:52:26;25.70;;;4.45;;
51374;SDS011;37465;52.738;4.752;2023-12-22T12:54:54;22.38;;;3.47;;
51374;SDS011;37465;52.738;4.752;2023-12-22T12:57:22;21.67;;;3.85;;
51374;SDS011;37465;52.738;4.752;2023-12-22T12:59:51;27.90;;;3.90;;
51374;SDS011;37465;52.738;4.752;2023-12-22T13:02:18;16.43;;;3.30;;
51374;SDS011;37465;52.738;4.752;2023-12-22T13:04:47;21.77;;;4.55;;
51374;SDS011;37465;52.738;4.752;2023-12-22T13:07:23;16.23;;;2.95;;
51374;SDS011;37465;52.738;4.752;2023-12-22T13:09:51;19.55;;;3.75;;
51374;SDS011;37465;52.738;4.752;2023-12-22T13:12:20;21.00;;;3.25;;
51374;SDS011;37465;52.738;4.752;2023-12-22T13:14:47;17.27;;;3.67;;
51374;SDS011;37465;52.738;4.752;2023-12-22T13:17:17;18.40;;;3.00;;
51374;SDS011;37465;52.738;4.752;2023-12-22T13:19:44;16.88;;;3.40;;
51374;SDS011;37465;52.738;4.752;2023-12-22T13:22:12;19.95;;;3.60;;
51374;SDS011;37465;52.738;4.752;2023-12-22T13:24:40;19.48;;;4.03;;
51374;SDS011;37465;52.738;4.752;2023-12-22T13:27:08;25.15;;;3.85;;
51374;SDS011;37465;52.738;4.752;2023-12-22T13:29:41;18.95;;;4.18;;
51374;SDS011;37465;52.738;4.752;2023-12-22T13:32:14;17.42;;;3.50;;
51374;SDS011;37465;52.738;4.752;2023-12-22T13:34:47;22.40;;;3.47;;
51374;SDS011;37465;52.738;4.752;2023-12-22T13:37:15;19.58;;;3.05;;
51374;SDS011;37465;52.738;4.752;2023-12-22T13:39:42;18.00;;;4.20;;
51374;SDS011;37465;52.738;4.752;2023-12-22T13:42:13;23.23;;;4.38;;
51374;SDS011;37465;52.738;4.752;2023-12-22T13:44:42;20.25;;;3.38;;
51374;SDS011;37465;52.738;4.752;2023-12-22T13:47:10;18.42;;;3.88;;
51374;SDS011;37465;52.738;4.752;2023-12-22T13:49:37;22.52;;;3.97;;
51374;SDS011;37465;52.738;4.752;2023-12-22T13:52:06;21.02;;;3.28;;
51374;SDS011;37465;52.738;4.752;2023-12-22T13:54:34;19.42;;;4.07;;
51374;SDS011;37465;52.738;4.752;2023-12-22T13:57:02;18.70;;;4.22;;
51374;SDS011;37465;52.738;4.752;2023-12-22T13:59:32;22.85;;;3.30;;
51374;SDS011;37465;52.738;4.752;2023-12-22T14:02:00;24.35;;;5.10;;
51374;SDS011;37465;52.738;4.752;2023-12-22T14:04:27;23.30;;;3.92;;
51374;SDS011;37465;52.738;4.752;2023-12-22T14:06:55;17.98;;;3.25;;
51374;SDS011;37465;52.738;4.752;2023-12-22T14:09:24;20.02;;;3.30;;
51374;SDS011;37465;52.738;4.752;2023-12-22T14:11:51;20.23;;;3.85;;
51374;SDS011;37465;52.738;4.752;2023-12-22T14:14:30;17.40;;;3.13;;
51374;SDS011;37465;52.738;4.752;2023-12-22T14:16:58;17.58;;;3.15;;
51374;SDS011;37465;52.738;4.752;2023-12-22T14:19:25;15.60;;;3.58;;
51374;SDS011;37465;52.738;4.752;2023-12-22T14:21:53;16.52;;;3.55;;
51374;SDS011;37465;52.738;4.752;2023-12-22T14:24:20;15.70;;;3.38;;
51374;SDS011;37465;52.738;4.752;2023-12-22T14:26:55;18.75;;;3.75;;
51374;SDS011;37465;52.738;4.752;2023-12-22T14:29:23;18.23;;;3.40;;
51374;SDS011;37465;52.738;4.752;2023-12-22T14:34:18;22.30;;;3.90;;
51374;SDS011;37465;52.738;4.752;2023-12-22T14:36:46;20.45;;;3.40;;
51374;SDS011;37465;52.738;4.752;2023-12-22T14:39:13;20.13;;;3.72;;
51374;SDS011;37465;52.738;4.752;2023-12-22T14:41:41;19.25;;;3.70;;
51374;SDS011;37465;52.738;4.752;2023-12-22T14:44:10;18.02;;;3.67;;
51374;SDS011;37465;52.738;4.752;2023-12-22T14:46:38;16.48;;;3.28;;
51374;SDS011;37465;52.738;4.752;2023-12-22T14:49:06;18.57;;;3.17;;
51374;SDS011;37465;52.738;4.752;2023-12-22T14:51:34;17.58;;;3.25;;
51374;SDS011;37465;52.738;4.752;2023-12-22T14:54:02;22.60;;;4.60;;
51374;SDS011;37465;52.738;4.752;2023-12-22T14:56:30;23.60;;;4.25;;
51374;SDS011;37465;52.738;4.752;2023-12-22T14:58:57;18.25;;;3.15;;
51374;SDS011;37465;52.738;4.752;2023-12-22T15:01:26;16.77;;;3.17;;
51374;SDS011;37465;52.738;4.752;2023-12-22T15:03:54;18.90;;;3.30;;
51374;SDS011;37465;52.738;4.752;2023-12-22T15:06:22;17.17;;;3.42;;
51374;SDS011;37465;52.738;4.752;2023-12-22T15:08:49;20.00;;;4.05;;
51374;SDS011;37465;52.738;4.752;2023-12-22T15:11:18;27.02;;;4.57;;